Time;durP1;ratioP1;P1;durP2;ratioP2;P2;SDS_P1;SDS_P2;PMS_P1;PMS_P2;Temp;Humidity;BMP_temperature;BMP_pressure;BME280_temperature;BME280_humidity;BME280_pressure;Samples;Min_cycle;Max_cycle;Signal;HPM_P1;HPM_P2
2022/03/21 00:02:03;;;;;;;27.83;20.83;;;3.10;77.70;;;;;;5012674;28;20035;-67
2022/03/21 00:04:28;;;;;;;29.67;20.90;;;3.10;77.70;;;;;;5030234;28;20021;-66
2022/03/21 00:06:54;;;;;;;28.67;20.10;;;3.10;77.80;;;;;;5030079;28;20069;-66
2022/03/21 00:09:19;;;;;;;29.50;21.08;;;3.10;77.80;;;;;;5030351;28;20037;-66
2022/03/21 00:11:45;;;;;;;27.33;20.58;;;3.10;77.70;;;;;;5030320;28;20021;-66
2022/03/21 00:14:11;;;;;;;32.05;20.83;;;3.00;77.60;;;;;;5029986;28;20034;-66
2022/03/21 00:16:38;;;;;;;31.05;20.75;;;3.00;77.60;;;;;;5030006;28;20214;-66
2022/03/21 00:19:04;;;;;;;34.47;24.13;;;3.00;77.60;;;;;;5029982;28;20427;-66
2022/03/21 00:21:30;;;;;;;31.02;22.38;;;2.90;77.70;;;;;;5012135;28;20156;-66
2022/03/21 00:23:55;;;;;;;32.08;23.05;;;2.90;78.00;;;;;;5029858;28;20461;-66
2022/03/21 00:26:21;;;;;;;32.78;22.83;;;2.90;78.00;;;;;;5030000;28;20033;-66
2022/03/21 00:28:47;;;;;;;33.70;23.23;;;2.90;78.10;;;;;;5009222;28;20297;-66
2022/03/21 00:31:13;;;;;;;30.17;20.98;;;2.80;78.00;;;;;;5029799;28;20034;-66
2022/03/21 00:33:39;;;;;;;32.95;22.20;;;2.80;77.90;;;;;;5029790;28;20096;-65
2022/03/21 00:36:07;;;;;;;29.85;20.80;;;2.80;77.90;;;;;;4995581;28;20037;-66
2022/03/21 00:38:34;;;;;;;30.75;22.58;;;2.80;77.90;;;;;;5029410;28;20349;-66
2022/03/21 00:41:00;;;;;;;32.25;22.63;;;2.80;77.90;;;;;;5009471;28;20367;-66
2022/03/21 00:43:26;;;;;;;31.95;21.58;;;2.80;78.00;;;;;;5011631;28;20018;-66
2022/03/21 00:45:54;;;;;;;30.02;21.85;;;2.70;78.10;;;;;;5009384;28;20117;-66
2022/03/21 00:48:21;;;;;;;31.27;21.48;;;2.70;78.30;;;;;;5029744;28;20033;-66
2022/03/21 00:50:47;;;;;;;28.48;20.38;;;2.60;78.40;;;;;;5029511;28;20460;-66
2022/03/21 00:53:16;;;;;;;33.05;22.00;;;2.60;78.50;;;;;;5029283;28;20033;-66
2022/03/21 00:55:42;;;;;;;29.15;21.20;;;2.60;78.70;;;;;;5029018;28;20628;-65
2022/03/21 00:58:08;;;;;;;28.33;19.50;;;2.60;78.80;;;;;;5029183;28;20053;-66
2022/03/21 01:00:34;;;;;;;28.40;19.75;;;2.60;78.90;;;;;;5029112;28;20482;-66
2022/03/21 01:03:01;;;;;;;29.35;20.38;;;2.50;79.00;;;;;;5029352;28;20425;-66
2022/03/21 01:05:27;;;;;;;25.38;18.73;;;2.50;79.20;;;;;;5029208;28;20053;-66
2022/03/21 01:07:53;;;;;;;31.23;21.90;;;2.40;79.40;;;;;;5029104;28;20097;-66
2022/03/21 01:10:20;;;;;;;29.50;20.52;;;2.30;79.80;;;;;;5029072;28;20029;-66
2022/03/21 01:12:47;;;;;;;29.13;20.10;;;2.30;79.90;;;;;;5029397;28;20036;-66
2022/03/21 01:15:14;;;;;;;31.95;21.52;;;2.30;80.00;;;;;;5011251;28;20389;-66
2022/03/21 01:17:41;;;;;;;27.20;20.20;;;2.20;80.00;;;;;;5028838;28;20466;-66
2022/03/21 01:20:08;;;;;;;29.63;20.65;;;2.20;80.20;;;;;;5028831;28;20504;-66
2022/03/21 01:22:33;;;;;;;30.15;21.05;;;2.20;80.30;;;;;;5028650;28;20036;-66
2022/03/21 01:24:59;;;;;;;30.77;21.52;;;2.20;80.40;;;;;;5029367;28;20021;-66
2022/03/21 01:27:24;;;;;;;27.95;19.98;;;2.20;80.30;;;;;;5028903;28;20559;-66
2022/03/21 01:29:50;;;;;;;30.63;21.92;;;2.20;80.30;;;;;;5028617;28;20045;-66
2022/03/21 01:32:15;;;;;;;30.50;21.98;;;2.10;80.20;;;;;;5010708;28;20076;-65
2022/03/21 01:34:41;;;;;;;28.33;20.77;;;2.20;80.30;;;;;;5011168;28;20423;-66
2022/03/21 01:37:07;;;;;;;29.25;20.42;;;2.20;80.30;;;;;;5030227;28;20034;-65
2022/03/21 01:39:33;;;;;;;29.52;20.27;;;2.10;80.30;;;;;;5028917;28;20021;-66
2022/03/21 01:41:58;;;;;;;29.10;19.17;;;2.10;80.40;;;;;;5025906;28;20028;-66
2022/03/21 01:44:24;;;;;;;30.73;20.20;;;2.10;80.50;;;;;;5028550;28;20025;-66
2022/03/21 01:46:50;;;;;;;29.27;20.40;;;2.10;80.60;;;;;;5028444;28;20056;-65
2022/03/21 01:49:16;;;;;;;30.08;20.73;;;2.10;80.70;;;;;;5028368;28;20029;-66
2022/03/21 01:51:42;;;;;;;29.65;20.40;;;2.10;80.80;;;;;;5028142;28;20017;-65
2022/03/21 01:56:53;;;;;;;32.58;21.83;;;2.10;80.90;;;;;;5028048;28;20052;-65
2022/03/21 01:59:20;;;;;;;32.20;21.52;;;2.10;80.90;;;;;;5025492;28;20017;-66
2022/03/21 02:01:46;;;;;;;32.05;21.42;;;2.10;80.90;;;;;;5028536;28;20025;-65
2022/03/21 02:04:12;;;;;;;31.63;22.40;;;2.10;80.70;;;;;;5028173;28;20032;-66
2022/03/21 02:06:38;;;;;;;32.95;22.98;;;2.10;80.60;;;;;;5027952;28;20400;-66
2022/03/21 02:09:09;;;;;;;32.42;21.98;;;2.10;80.60;;;;;;5028101;28;20036;-65
2022/03/21 02:11:35;;;;;;;30.50;21.17;;;2.10;80.60;;;;;;5028001;28;20025;-66
2022/03/21 02:14:03;;;;;;;32.58;20.98;;;2.00;80.70;;;;;;5028098;28;20036;-66
2022/03/21 02:16:30;;;;;;;32.53;21.83;;;2.10;81.40;;;;;;5007359;28;20071;-66
2022/03/21 02:19:00;;;;;;;32.17;21.15;;;2.00;80.70;;;;;;5027653;28;20025;-65
2022/03/21 02:21:43;;;;;;;31.73;21.23;;;2.00;80.70;;;;;;5027973;28;20368;-66
2022/03/21 02:24:21;;;;;;;28.65;19.75;;;2.00;80.90;;;;;;5026713;28;20400;-67
2022/03/21 02:26:47;;;;;;;28.25;19.25;;;1.90;81.00;;;;;;5026367;28;20650;-66
2022/03/21 02:29:14;;;;;;;25.50;19.02;;;1.90;81.10;;;;;;5028244;28;20029;-65
2022/03/21 02:31:40;;;;;;;26.25;18.65;;;1.90;81.20;;;;;;5027745;28;20055;-67
2022/03/21 02:34:07;;;;;;;28.63;19.35;;;1.90;81.30;;;;;;5027817;28;20032;-66
2022/03/21 02:36:34;;;;;;;28.25;19.25;;;1.90;81.40;;;;;;5009973;28;20028;-66
2022/03/21 02:38:59;;;;;;;27.35;19.33;;;1.80;81.50;;;;;;5027821;28;20541;-66
2022/03/21 02:41:25;;;;;;;29.83;19.20;;;1.80;81.60;;;;;;5027875;28;20104;-66
2022/03/21 02:43:53;;;;;;;26.60;18.17;;;1.80;81.70;;;;;;5027885;28;20385;-66
2022/03/21 02:46:19;;;;;;;24.63;17.10;;;1.80;81.80;;;;;;5023598;28;20036;-66
2022/03/21 02:48:46;;;;;;;29.63;19.80;;;1.80;81.90;;;;;;5027804;28;20025;-66
2022/03/21 02:51:12;;;;;;;28.98;18.88;;;1.80;82.00;;;;;;5002177;28;20096;-66
2022/03/21 02:53:40;;;;;;;25.88;18.45;;;1.70;82.00;;;;;;5027415;28;20095;-66
2022/03/21 02:56:05;;;;;;;27.15;19.15;;;1.70;82.10;;;;;;5027440;28;20069;-65
2022/03/21 02:58:31;;;;;;;30.13;19.73;;;1.70;82.20;;;;;;5028179;28;20135;-66
2022/03/21 03:01:29;;;;;;;29.95;19.38;;;1.70;82.20;;;;;;5009437;28;20025;-67
2022/03/21 03:03:54;;;;;;;32.30;20.58;;;1.80;82.30;;;;;;4987312;28;20038;-66
2022/03/21 03:06:20;;;;;;;31.42;19.73;;;1.70;82.30;;;;;;5030986;28;20052;-66
2022/03/21 03:08:46;;;;;;;29.00;20.70;;;1.70;82.30;;;;;;5015108;28;20113;-66
2022/03/21 03:11:12;;;;;;;29.67;20.23;;;1.70;82.40;;;;;;5031930;28;20496;-66
2022/03/21 03:13:38;;;;;;;31.73;21.85;;;1.70;82.40;;;;;;5013564;28;20025;-66
2022/03/21 03:16:04;;;;;;;30.40;20.83;;;1.70;82.50;;;;;;5031474;28;20496;-66
2022/03/21 03:18:30;;;;;;;30.67;21.45;;;1.70;82.70;;;;;;5031413;28;20500;-66
2022/03/21 03:20:58;;;;;;;31.90;20.65;;;1.60;82.80;;;;;;5031403;28;20227;-66
2022/03/21 03:23:25;;;;;;;31.50;20.95;;;1.60;83.00;;;;;;5031073;28;20021;-67
2022/03/21 03:25:57;;;;;;;28.60;19.10;;;1.60;83.10;;;;;;5030890;28;20239;-66
2022/03/21 03:28:22;;;;;;;30.00;20.38;;;1.60;83.20;;;;;;5030991;28;20078;-66
2022/03/21 03:30:48;;;;;;;29.88;20.02;;;1.60;83.20;;;;;;5030997;28;20370;-67
2022/03/21 03:33:13;;;;;;;29.70;19.75;;;1.60;83.10;;;;;;5031092;28;20045;-66
2022/03/21 03:35:40;;;;;;;30.83;20.58;;;1.50;83.20;;;;;;5030522;28;20030;-66
2022/03/21 03:38:06;;;;;;;32.38;21.08;;;1.40;83.60;;;;;;5031466;28;20028;-66
2022/03/21 03:40:31;;;;;;;30.95;21.55;;;1.40;83.80;;;;;;5030570;28;20385;-66
2022/03/21 03:42:57;;;;;;;28.98;20.77;;;1.40;83.90;;;;;;5030857;28;20495;-66
2022/03/21 03:45:22;;;;;;;31.00;21.55;;;1.40;83.90;;;;;;5030873;28;20026;-66
2022/03/21 03:47:48;;;;;;;31.55;21.23;;;1.40;83.90;;;;;;5030647;28;20447;-66
2022/03/21 03:50:13;;;;;;;29.70;21.10;;;1.40;84.00;;;;;;5030489;28;20084;-66
2022/03/21 03:52:40;;;;;;;30.83;20.40;;;1.30;84.00;;;;;;5030384;28;20021;-66
2022/03/21 03:55:07;;;;;;;29.85;19.90;;;1.30;84.30;;;;;;5030369;28;20492;-66
2022/03/21 03:57:33;;;;;;;30.35;20.80;;;1.30;84.30;;;;;;5009131;28;20391;-66
2022/03/21 03:59:58;;;;;;;29.42;19.77;;;1.40;84.20;;;;;;5010450;28;20041;-66
2022/03/21 04:02:24;;;;;;;32.65;21.10;;;1.40;84.20;;;;;;5010576;28;20021;-66
2022/03/21 04:04:49;;;;;;;28.83;20.20;;;1.40;84.10;;;;;;4992857;28;20032;-65
2022/03/21 04:07:15;;;;;;;34.28;23.58;;;1.40;84.10;;;;;;5010437;28;20029;-66
2022/03/21 04:09:40;;;;;;;34.42;23.05;;;1.30;84.20;;;;;;5010520;28;20393;-66
2022/03/21 04:12:06;;;;;;;33.65;21.77;;;1.30;84.60;;;;;;5010648;28;20032;-66
2022/03/21 04:14:32;;;;;;;27.80;19.45;;;1.30;84.80;;;;;;5011142;28;20493;-66
2022/03/21 04:16:58;;;;;;;31.33;20.42;;;1.30;84.90;;;;;;5008818;28;20053;-66
2022/03/21 04:19:23;;;;;;;31.27;21.55;;;1.30;84.90;;;;;;5006254;28;20018;-66
2022/03/21 04:21:49;;;;;;;32.72;21.45;;;1.30;84.80;;;;;;5010510;28;20033;-66
2022/03/21 04:24:14;;;;;;;29.50;20.80;;;1.30;84.80;;;;;;5010157;28;20425;-65
2022/03/21 04:26:40;;;;;;;32.42;21.30;;;1.30;84.90;;;;;;5007436;28;20466;-66
2022/03/21 04:29:05;;;;;;;30.42;19.23;;;1.30;85.10;;;;;;5010399;28;20109;-66
2022/03/21 04:31:32;;;;;;;28.98;19.98;;;1.30;85.30;;;;;;5009910;28;20030;-66
2022/03/21 04:33:58;;;;;;;29.73;19.48;;;1.20;85.40;;;;;;5010069;28;20038;-65
2022/03/21 04:36:24;;;;;;;27.50;19.10;;;1.20;85.50;;;;;;5009891;28;20140;-66
2022/03/21 04:38:50;;;;;;;30.30;20.27;;;1.20;85.60;;;;;;5009863;28;20026;-66
2022/03/21 04:41:15;;;;;;;34.40;22.90;;;1.20;85.60;;;;;;5008233;28;20030;-66
2022/03/21 04:43:41;;;;;;;39.85;25.38;;;1.20;85.60;;;;;;5009818;28;20405;-66
2022/03/21 04:46:07;;;;;;;41.92;25.58;;;1.20;85.90;;;;;;5009885;28;20128;-66
2022/03/21 04:48:33;;;;;;;32.65;23.27;;;1.10;86.00;;;;;;5008366;28;20041;-66
2022/03/21 04:50:59;;;;;;;33.58;22.67;;;1.20;86.10;;;;;;5009443;28;20446;-66
2022/03/21 04:53:24;;;;;;;32.08;21.80;;;1.20;86.20;;;;;;5009752;28;20477;-66
2022/03/21 04:55:51;;;;;;;33.63;21.63;;;1.20;86.20;;;;;;5013712;28;20107;-67
2022/03/21 04:58:16;;;;;;;32.35;21.88;;;1.20;86.30;;;;;;5029259;28;20136;-66
2022/03/21 05:00:44;;;;;;;33.17;19.85;;;1.20;86.40;;;;;;5011388;28;20030;-66
2022/03/21 05:03:09;;;;;;;28.13;19.83;;;1.10;86.50;;;;;;5029108;28;20053;-66
2022/03/21 05:05:35;;;;;;;30.92;20.70;;;1.20;86.60;;;;;;5029151;28;20507;-66
2022/03/21 05:08:02;;;;;;;31.25;21.95;;;1.10;86.60;;;;;;5029203;28;20018;-66
2022/03/21 05:10:28;;;;;;;31.52;20.42;;;1.10;86.70;;;;;;5028822;28;20029;-66
2022/03/21 05:12:54;;;;;;;32.35;21.02;;;1.10;86.80;;;;;;5014127;28;20026;-66
2022/03/21 05:15:19;;;;;;;32.35;20.85;;;1.10;86.90;;;;;;5028494;28;20036;-66
2022/03/21 05:17:45;;;;;;;34.58;22.63;;;1.10;87.00;;;;;;5029027;28;20535;-66
2022/03/21 05:20:17;;;;;;;36.42;24.25;;;1.10;87.10;;;;;;5028901;28;20018;-66
2022/03/21 05:22:44;;;;;;;34.13;22.98;;;1.20;87.30;;;;;;5028824;28;20500;-66
2022/03/21 05:31:12;;;;;;;31.15;20.58;;;1.20;87.70;;;;;;5028754;28;20457;-66
2022/03/21 05:36:29;;;;;;;31.00;21.27;;;1.10;87.80;;;;;;5028697;28;20035;-66
2022/03/21 05:38:56;;;;;;;30.85;20.48;;;1.10;87.90;;;;;;5028843;28;20045;-65
2022/03/21 05:41:22;;;;;;;31.63;19.48;;;1.10;88.10;;;;;;5028430;28;20635;-66
2022/03/21 05:43:49;;;;;;;28.77;20.55;;;1.10;88.20;;;;;;5028767;28;20108;-66
2022/03/21 05:46:15;;;;;;;28.85;19.88;;;1.10;88.30;;;;;;5028543;28;20044;-66
2022/03/21 05:51:30;;;;;;;28.60;18.17;;;1.10;88.50;;;;;;5028336;28;20035;-66
2022/03/21 05:54:06;;;;;;;27.98;18.38;;;1.00;88.60;;;;;;5028516;28;20044;-66
2022/03/21 05:56:32;;;;;;;29.98;18.52;;;1.00;88.80;;;;;;5028137;28;20045;-66
2022/03/21 06:00:20;;;;;;;27.55;17.70;;;1.00;88.80;;;;;;5028157;28;20067;-66
2022/03/21 06:01:48;;;;;;;25.70;16.10;;;1.00;88.90;;;;;;5028249;28;20323;-66
2022/03/21 06:04:14;;;;;;;25.25;17.40;;;1.10;89.10;;;;;;5028165;28;20036;-66
2022/03/21 06:06:40;;;;;;;28.90;17.88;;;1.00;89.70;;;;;;5028326;28;20028;-66
2022/03/21 06:09:06;;;;;;;27.48;18.80;;;1.10;89.20;;;;;;5028465;28;20461;-66
2022/03/21 06:11:31;;;;;;;30.98;20.05;;;1.10;89.20;;;;;;5027996;28;20487;-66
2022/03/21 06:13:57;;;;;;;29.13;18.70;;;1.00;89.30;;;;;;5027828;28;20029;-66
2022/03/21 06:16:22;;;;;;;29.70;20.02;;;1.00;89.40;;;;;;5027834;28;20029;-66
2022/03/21 06:18:48;;;;;;;26.58;17.80;;;1.10;89.50;;;;;;5028019;28;20385;-66
2022/03/21 06:21:14;;;;;;;25.92;17.67;;;1.10;89.50;;;;;;5028160;28;20026;-66
2022/03/21 06:23:39;;;;;;;27.20;18.40;;;1.20;89.50;;;;;;5027759;28;20014;-66
2022/03/21 06:26:07;;;;;;;27.08;17.25;;;1.20;89.60;;;;;;5007519;28;20108;-66
2022/03/21 06:28:33;;;;;;;27.20;17.33;;;1.20;89.60;;;;;;5007809;28;20022;-66
2022/03/21 06:30:59;;;;;;;27.67;18.38;;;1.20;89.60;;;;;;5027782;28;20029;-66
2022/03/21 06:33:27;;;;;;;30.10;19.40;;;1.30;89.70;;;;;;5027939;28;20028;-66
2022/03/21 06:35:54;;;;;;;27.23;18.20;;;1.30;89.70;;;;;;5028521;28;20029;-66
2022/03/21 06:38:20;;;;;;;26.05;17.58;;;1.40;89.80;;;;;;5031688;28;20079;-66
2022/03/21 06:40:46;;;;;;;25.17;16.25;;;1.40;89.80;;;;;;5032026;28;20017;-66
2022/03/21 06:43:15;;;;;;;25.40;16.73;;;1.40;89.80;;;;;;5031939;28;20025;-66
2022/03/21 06:45:41;;;;;;;29.77;16.95;;;1.40;89.80;;;;;;5031327;28;20033;-66
2022/03/21 06:48:07;;;;;;;25.80;17.08;;;1.40;89.90;;;;;;5013974;28;20060;-66
2022/03/21 06:50:32;;;;;;;24.60;17.25;;;1.50;90.00;;;;;;5013841;28;20091;-66
2022/03/21 06:52:58;;;;;;;22.67;16.67;;;1.50;90.00;;;;;;5031297;28;20033;-66
2022/03/21 06:55:24;;;;;;;24.80;16.58;;;1.50;90.00;;;;;;5031461;28;20080;-65
2022/03/21 06:57:50;;;;;;;24.02;17.33;;;1.60;90.10;;;;;;5034922;28;20018;-66
2022/03/21 07:00:16;;;;;;;24.20;16.98;;;1.60;90.10;;;;;;5035175;28;20060;-66
2022/03/21 07:02:43;;;;;;;25.90;17.60;;;1.60;90.10;;;;;;5035387;28;20049;-66
2022/03/21 07:05:08;;;;;;;24.42;17.58;;;1.70;90.20;;;;;;5033743;28;20047;-66
2022/03/21 07:07:35;;;;;;;23.27;16.27;;;1.80;90.20;;;;;;5033984;28;20377;-66
2022/03/21 07:10:01;;;;;;;22.73;16.60;;;1.80;90.30;;;;;;5032595;28;20033;-66
2022/03/21 07:12:27;;;;;;;22.13;15.88;;;1.90;90.30;;;;;;5034399;28;20026;-66
2022/03/21 07:14:53;;;;;;;23.20;16.10;;;1.90;90.40;;;;;;5035185;28;20026;-65
2022/03/21 07:17:21;;;;;;;20.08;15.35;;;2.00;90.40;;;;;;5035012;28;20103;-66
2022/03/21 07:19:47;;;;;;;20.52;15.82;;;2.10;90.50;;;;;;5035274;28;20390;-65
2022/03/21 07:22:14;;;;;;;25.55;17.52;;;2.10;90.50;;;;;;5035145;28;20025;-65
2022/03/21 07:24:40;;;;;;;22.58;16.50;;;2.20;90.60;;;;;;5017436;28;20116;-65
2022/03/21 07:27:06;;;;;;;25.23;18.15;;;2.30;90.70;;;;;;5035117;28;20145;-66
2022/03/21 07:29:32;;;;;;;23.00;17.00;;;2.30;90.70;;;;;;5033360;28;20486;-66
2022/03/21 07:31:57;;;;;;;22.80;17.00;;;2.40;90.80;;;;;;5007650;28;20851;-65
2022/03/21 07:34:23;;;;;;;24.40;17.13;;;2.50;90.90;;;;;;5034881;28;20029;-65
2022/03/21 07:36:50;;;;;;;20.05;15.07;;;2.60;90.90;;;;;;5032839;28;20044;-66
2022/03/21 07:39:16;;;;;;;21.75;15.82;;;2.60;91.00;;;;;;5033185;28;20389;-65
2022/03/21 07:41:41;;;;;;;21.08;15.48;;;2.70;91.00;;;;;;5033056;28;20010;-66
2022/03/21 07:44:07;;;;;;;19.85;14.02;;;2.80;91.10;;;;;;5033305;28;20017;-66
2022/03/21 07:49:17;;;;;;;24.23;15.50;;;3.00;91.20;;;;;;5026271;28;20112;-64
2022/03/21 07:51:43;;;;;;;18.40;13.55;;;3.10;91.30;;;;;;5032068;28;20119;-65
2022/03/21 07:54:13;;;;;;;18.20;13.15;;;3.20;91.20;;;;;;5032501;28;20036;-64
2022/03/21 07:56:39;;;;;;;18.13;13.43;;;3.30;91.20;;;;;;5032423;28;20140;-65
2022/03/21 07:59:05;;;;;;;19.73;14.68;;;3.40;91.20;;;;;;5034493;28;20456;-65
2022/03/21 08:01:31;;;;;;;22.00;15.85;;;3.50;91.30;;;;;;5033702;28;20078;-65
2022/03/21 08:04:00;;;;;;;21.88;15.75;;;3.60;91.30;;;;;;5034262;28;20033;-66
2022/03/21 08:06:26;;;;;;;19.83;14.40;;;3.80;91.40;;;;;;5033108;28;20040;-65
2022/03/21 08:08:55;;;;;;;22.10;15.27;;;3.90;91.40;;;;;;5033186;28;20275;-65
2022/03/21 08:11:21;;;;;;;20.15;13.98;;;4.00;91.40;;;;;;5033764;28;20026;-65
2022/03/21 08:13:49;;;;;;;18.67;14.05;;;4.10;91.40;;;;;;5032214;28;20021;-66
2022/03/21 08:16:19;;;;;;;19.02;13.57;;;4.20;91.40;;;;;;5033754;28;20164;-65
2022/03/21 08:18:47;;;;;;;17.58;12.90;;;4.30;91.50;;;;;;5017030;28;20045;-65
2022/03/21 08:21:13;;;;;;;17.83;13.70;;;4.50;91.60;;;;;;5033973;28;20059;-65
2022/03/21 08:23:38;;;;;;;21.23;14.32;;;4.60;91.60;;;;;;5033695;28;20033;-66
2022/03/21 08:26:04;;;;;;;17.88;13.70;;;4.80;91.60;;;;;;5033551;28;20037;-65
2022/03/21 08:28:29;;;;;;;22.35;15.57;;;4.90;91.70;;;;;;5032805;28;20033;-66
2022/03/21 08:30:55;;;;;;;19.58;14.65;;;5.10;91.80;;;;;;5033613;28;20035;-65
2022/03/21 08:33:21;;;;;;;22.02;15.43;;;5.20;91.80;;;;;;5033609;28;20044;-65
2022/03/21 08:35:46;;;;;;;21.20;15.25;;;5.40;91.90;;;;;;5033700;28;20030;-65
2022/03/21 08:38:12;;;;;;;20.23;15.68;;;5.50;91.90;;;;;;5033408;28;20105;-66
2022/03/21 08:40:38;;;;;;;29.00;20.80;;;5.70;92.00;;;;;;5033525;28;20060;-65
2022/03/21 08:43:05;;;;;;;28.55;20.13;;;5.90;93.00;;;;;;5033544;28;20033;-65
2022/03/21 08:45:30;;;;;;;27.63;20.20;;;6.20;93.80;;;;;;5033401;28;20060;-65
2022/03/21 08:47:56;;;;;;;31.73;20.25;;;6.50;94.30;;;;;;5033534;28;20067;-65
2022/03/21 08:50:22;;;;;;;30.67;19.73;;;6.80;94.80;;;;;;5033349;28;20037;-65
2022/03/21 08:52:47;;;;;;;29.02;17.27;;;7.10;94.80;;;;;;5033221;28;20053;-65
2022/03/21 08:55:13;;;;;;;25.25;16.60;;;7.40;94.00;;;;;;5032784;28;20060;-65
2022/03/21 08:57:39;;;;;;;25.27;15.50;;;7.50;93.40;;;;;;5015423;28;20107;-66
2022/03/21 09:00:07;;;;;;;20.50;14.48;;;7.80;92.70;;;;;;5033105;28;20044;-65
2022/03/21 09:02:33;;;;;;;21.25;14.63;;;8.00;91.80;;;;;;5032916;28;20018;-65
2022/03/21 09:04:59;;;;;;;21.23;13.73;;;8.20;91.40;;;;;;5033089;28;20068;-65
2022/03/21 09:07:25;;;;;;;21.70;13.10;;;8.30;90.80;;;;;;5031702;28;20060;-65
2022/03/21 09:09:50;;;;;;;18.60;12.48;;;8.60;89.10;;;;;;5033289;28;20118;-66
2022/03/21 09:12:16;;;;;;;22.27;13.48;;;8.70;88.20;;;;;;5032757;28;20511;-65
2022/03/21 09:14:41;;;;;;;16.65;12.20;;;8.80;87.00;;;;;;5032455;28;20361;-66
2022/03/21 09:17:07;;;;;;;20.45;14.93;;;8.90;86.40;;;;;;5015231;28;20526;-65
2022/03/21 09:19:33;;;;;;;19.10;12.43;;;9.00;84.80;;;;;;5032809;28;20026;-65
2022/03/21 09:21:59;;;;;;;21.45;12.60;;;9.20;83.20;;;;;;5032770;28;20037;-65
2022/03/21 09:24:25;;;;;;;19.00;12.13;;;9.40;81.80;;;;;;5032602;28;20061;-65
2022/03/21 09:26:51;;;;;;;15.27;10.75;;;9.60;81.00;;;;;;5014559;28;20119;-65
2022/03/21 09:29:17;;;;;;;12.25;8.70;;;9.70;81.00;;;;;;5032715;28;20033;-66
2022/03/21 09:31:43;;;;;;;19.23;11.50;;;9.80;81.00;;;;;;5031965;28;20508;-65
2022/03/21 09:34:10;;;;;;;22.13;12.68;;;10.00;79.10;;;;;;5011029;28;20069;-65
2022/03/21 09:36:36;;;;;;;18.50;12.15;;;10.10;76.30;;;;;;5012525;28;20029;-65
2022/03/21 09:39:03;;;;;;;16.23;11.23;;;10.30;73.40;;;;;;5012795;28;20470;-66
2022/03/21 09:41:30;;;;;;;15.07;10.30;;;10.40;73.20;;;;;;4995077;28;20378;-66
2022/03/21 09:43:59;;;;;;;18.35;12.30;;;10.60;73.60;;;;;;5021956;28;20401;-66
2022/03/21 09:46:25;;;;;;;19.23;13.00;;;10.70;70.90;;;;;;5030086;28;20426;-66
2022/03/21 09:48:53;;;;;;;21.73;13.50;;;10.90;69.00;;;;;;5029036;28;20438;-67
2022/03/21 09:51:23;;;;;;;23.10;12.75;;;11.00;70.00;;;;;;5030578;28;20087;-66
2022/03/21 09:53:49;;;;;;;20.42;13.18;;;11.10;69.70;;;;;;4998781;28;20033;-66
2022/03/21 09:56:16;;;;;;;17.15;11.52;;;11.30;70.50;;;;;;5020869;28;20049;-65
2022/03/21 09:58:42;;;;;;;17.35;11.77;;;11.50;70.80;;;;;;5032119;28;20551;-65
2022/03/21 10:01:08;;;;;;;17.65;11.98;;;11.70;70.60;;;;;;5031934;28;20070;-65
2022/03/21 10:03:35;;;;;;;17.58;12.48;;;11.90;69.30;;;;;;5032007;28;20025;-66
2022/03/21 10:06:00;;;;;;;21.73;12.77;;;12.00;67.60;;;;;;5032084;28;20049;-66
2022/03/21 10:08:28;;;;;;;18.98;12.48;;;12.10;66.70;;;;;;5014354;28;20580;-66
2022/03/21 10:11:03;;;;;;;17.25;11.95;;;12.30;66.40;;;;;;5025544;28;20418;-66
2022/03/21 10:13:34;;;;;;;20.77;13.32;;;12.50;66.60;;;;;;5012267;28;20034;-66
2022/03/21 10:16:07;;;;;;;14.57;10.73;;;12.60;65.30;;;;;;5025692;28;20041;-66
2022/03/21 10:18:33;;;;;;;17.80;12.20;;;12.80;65.80;;;;;;5031884;28;20120;-66
2022/03/21 10:21:15;;;;;;;20.88;12.98;;;13.00;64.50;;;;;;5014285;28;20116;-66
2022/03/21 10:23:41;;;;;;;18.70;13.13;;;13.20;64.40;;;;;;5031909;28;20022;-66
2022/03/21 10:26:27;;;;;;;21.42;14.10;;;13.40;64.50;;;;;;5032216;28;20083;-66
2022/03/21 10:28:55;;;;;;;21.65;12.95;;;13.70;63.90;;;;;;5031708;28;20021;-66
2022/03/21 10:31:43;;;;;;;23.10;13.88;;;13.80;62.40;;;;;;5031929;28;20112;-66
2022/03/21 10:34:19;;;;;;;16.15;11.65;;;14.00;62.30;;;;;;5031846;28;20041;-66
2022/03/21 10:37:09;;;;;;;15.75;10.88;;;14.30;62.80;;;;;;5029689;28;20540;-66
2022/03/21 10:39:40;;;;;;;18.27;13.63;;;14.60;61.60;;;;;;5030975;28;20022;-66
2022/03/21 10:42:09;;;;;;;19.77;13.20;;;15.00;60.70;;;;;;5031552;28;20096;-66
2022/03/21 10:44:37;;;;;;;18.15;11.20;;;15.30;59.50;;;;;;5031528;28;20033;-66
2022/03/21 10:47:05;;;;;;;17.27;11.35;;;15.70;60.20;;;;;;5014124;28;20113;-66
2022/03/21 10:49:40;;;;;;;20.73;13.55;;;16.30;59.70;;;;;;5031454;28;20026;-66
2022/03/21 10:52:07;;;;;;;20.60;13.18;;;17.00;56.60;;;;;;5014376;28;20052;-67
2022/03/21 10:54:40;;;;;;;17.83;13.60;;;17.20;53.90;;;;;;5013653;28;20033;-66
2022/03/21 10:57:24;;;;;;;14.05;10.65;;;17.70;54.10;;;;;;5031470;28;20041;-66
2022/03/21 10:59:50;;;;;;;17.15;12.20;;;19.10;54.30;;;;;;5031541;28;20101;-66
2022/03/21 11:02:17;;;;;;;11.93;8.38;;;22.10;49.10;;;;;;5031425;28;20460;-67
2022/03/21 11:04:44;;;;;;;17.88;12.45;;;24.70;46.10;;;;;;5021328;28;20121;-66
2022/03/21 11:07:11;;;;;;;17.30;12.18;;;25.50;39.40;;;;;;5011780;28;20038;-66
2022/03/21 11:09:38;;;;;;;15.35;13.43;;;25.60;38.20;;;;;;5025626;28;20033;-66
2022/03/21 11:12:07;;;;;;;14.10;10.32;;;26.10;37.40;;;;;;5020258;28;20060;-66
2022/03/21 11:14:36;;;;;;;11.00;8.90;;;27.30;38.50;;;;;;5024959;28;20542;-67
2022/03/21 11:17:03;;;;;;;14.85;11.38;;;29.70;37.90;;;;;;5030396;28;20037;-67
2022/03/21 11:19:30;;;;;;;14.13;10.93;;;31.00;33.70;;;;;;5030839;28;20496;-68
2022/03/21 11:21:55;;;;;;;10.00;7.72;;;32.10;33.00;;;;;;5030529;28;20092;-67
2022/03/21 11:24:21;;;;;;;12.30;9.30;;;33.50;33.40;;;;;;5032301;28;20021;-68
2022/03/21 11:26:56;;;;;;;10.93;8.75;;;35.00;31.10;;;;;;5034374;28;20075;-68
2022/03/21 11:29:41;;;;;;;10.27;8.02;;;36.10;30.90;;;;;;5016459;28;20087;-68
2022/03/21 11:32:27;;;;;;;10.25;7.53;;;37.50;30.50;;;;;;5032172;28;20053;-68
2022/03/21 11:35:17;;;;;;;10.20;7.90;;;39.30;30.10;;;;;;5030800;28;20087;-68
2022/03/21 11:37:43;;;;;;;11.98;9.90;;;40.00;27.80;;;;;;5031078;28;20025;-68
2022/03/21 11:40:34;;;;;;;9.82;8.73;;;39.00;26.90;;;;;;5032453;28;20036;-68
2022/03/21 11:43:15;;;;;;;10.88;9.77;;;39.10;28.10;;;;;;5028635;28;20084;-68
2022/03/21 11:45:41;;;;;;;9.77;8.32;;;40.50;27.50;;;;;;5030991;28;20017;-68
2022/03/21 11:48:18;;;;;;;10.90;8.65;;;40.90;26.90;;;;;;5017771;28;20336;-68
2022/03/21 11:51:16;;;;;;;12.48;11.20;;;41.30;26.90;;;;;;5031485;28;20489;-67
2022/03/21 11:53:53;;;;;;;11.93;9.52;;;41.30;25.30;;;;;;5032274;28;20051;-68
2022/03/21 11:56:41;;;;;;;9.45;8.30;;;40.10;25.90;;;;;;5031832;28;20076;-68
2022/03/21 11:59:07;;;;;;;13.27;9.57;;;40.90;26.60;;;;;;5032190;28;20121;-68
2022/03/21 12:01:33;;;;;;;14.57;11.68;;;42.00;26.50;;;;;;5025999;28;20022;-68
2022/03/21 12:04:31;;;;;;;11.20;8.95;;;41.50;24.60;;;;;;5030529;28;20022;-68
2022/03/21 12:07:17;;;;;;;12.13;10.82;;;40.80;26.10;;;;;;4988405;28;20033;-68
2022/03/21 12:09:52;;;;;;;11.90;9.30;;;41.70;25.30;;;;;;5031085;28;20028;-68
2022/03/21 12:12:19;;;;;;;15.68;11.18;;;42.10;25.70;;;;;;5028396;28;20014;-68
2022/03/21 12:14:56;;;;;;;10.13;8.95;;;41.70;24.90;;;;;;5032409;28;20029;-68
2022/03/21 12:17:22;;;;;;;12.77;10.18;;;41.40;25.70;;;;;;5032644;28;20029;-68
2022/03/21 12:20:01;;;;;;;9.50;8.52;;;41.40;25.30;;;;;;5034271;28;20546;-67
2022/03/21 12:22:27;;;;;;;11.70;10.00;;;41.90;25.20;;;;;;5033981;28;20021;-67
2022/03/21 12:24:54;;;;;;;10.02;9.13;;;41.20;25.00;;;;;;5033493;28;20021;-68
2022/03/21 12:27:58;;;;;;;11.50;10.30;;;41.50;25.40;;;;;;5033216;28;20493;-68
2022/03/21 12:30:27;;;;;;;13.70;10.32;;;41.50;25.50;;;;;;5033820;28;20056;-67
2022/03/21 12:32:55;;;;;;;13.55;11.75;;;42.20;25.20;;;;;;5033720;28;20033;-67
2022/03/21 12:35:40;;;;;;;;;;;40.70;24.60;;;;;;5033527;28;20026;-68
2022/03/21 12:38:16;;;;;;;11.75;10.55;;;39.40;24.90;;;;;;5033602;28;19912;-68
2022/03/21 12:40:50;;;;;;;15.38;13.88;;;38.40;25.90;;;;;;5033447;28;20029;-67
2022/03/21 12:43:16;;;;;;;16.35;12.60;;;39.20;25.30;;;;;;5033426;28;20033;-68
2022/03/21 12:45:45;;;;;;;12.80;11.50;;;37.50;25.70;;;;;;5033295;28;20057;-67
2022/03/21 12:48:17;;;;;;;11.32;10.25;;;37.00;26.10;;;;;;5016069;28;20029;-67
2022/03/21 12:50:46;;;;;;;13.43;12.05;;;37.10;27.00;;;;;;5033625;28;20025;-67
2022/03/21 12:53:15;;;;;;;13.82;10.70;;;37.30;26.30;;;;;;5033358;28;20025;-67
2022/03/21 12:55:41;;;;;;;13.43;12.02;;;37.10;26.20;;;;;;5032926;28;20045;-67
2022/03/21 12:58:08;;;;;;;14.50;12.18;;;36.60;26.30;;;;;;5033408;28;20068;-67